Strona główna
METAR-TAF:

METAR-TAF

Lotnisko :

Waukegan Regional Airport

Waukegan, Illinois, Stany Zjednoczone

Szerokość geograficzna: 42-25N, Długość geograficzna: 087-52W, wysokość: 222 m

Aktualna obserwacja pogody

Raport powstał 35 minut temu, godzina 04:55 UTC
Cisza
Temperatura 16°C
Wilgotność 77%
Ciśnienie 1019 hPa
Widzialność: 16.1 km
Rozproszone chmury na wysokości 7000 ft

METAR: KUGN 230455Z AUTO 00000KT 10SM SCT070 16/12 A3009 RMK AO2 SLP183 T01610117

czas: 00:30 (05:30 UTC)


TAF: brakujący

Obserwacja i prognoza pogody dla ponad 4000 lotnisk (raport METAR i TAF).

Dostępne stacje oznaczono żółtymi i czerwonymi punktami na mapie.

Najedź kursorem aby zobaczyć nazwę stacji.

Kliknij aby zobaczyć obserwacje i prognozy pogody.

Aby zmienić mapę: kliknij na zielony przycisk z czarnym krzyżykiem, aby powiększyć; na zielony przycisk z myślnikiem, aby pomniejszyć; na zielone strzałki, aby przejść do map sąsiednich.


METAR-TAF: